Time;durP1;ratioP1;P1;durP2;ratioP2;P2;SDS_P1;SDS_P2;PMS_P1;PMS_P2;Temp;Humidity;BMP_temperature;BMP_pressure;BME280_temperature;BME280_humidity;BME280_pressure;Samples;Min_cycle;Max_cycle;Signal;HPM_P1;HPM_P2
2022/07/05 00:02:10;;;;;;;1.10;0.60;;;;;;;22.49;47.56;100643.09;5029883;28;20423;-73
2022/07/05 00:04:36;;;;;;;1.87;0.60;;;;;;;22.46;47.72;100643.75;5019999;28;20421;-74
2022/07/05 00:07:19;;;;;;;0.50;0.50;;;;;;;22.41;48.06;100650.22;5013799;28;20733;-74
2022/07/05 00:09:53;;;;;;;3.43;0.63;;;;;;;22.39;48.57;100638.69;5032389;28;20406;-74
2022/07/05 00:12:21;;;;;;;1.70;0.80;;;;;;;22.36;48.33;100639.28;5024603;28;20952;-74
2022/07/05 00:14:47;;;;;;;0.60;0.60;;;;;;;22.39;48.04;100649.72;5016942;28;20408;-74
2022/07/05 00:17:13;;;;;;;4.38;0.80;;;;;;;22.42;47.92;100651.03;5029861;28;20413;-74
2022/07/05 00:19:39;;;;;;;2.00;0.60;;;;;;;22.44;47.92;100640.47;5032183;28;20478;-74
2022/07/05 00:22:04;;;;;;;1.63;0.60;;;;;;;22.37;47.89;100649.22;5023424;28;20422;-74
2022/07/05 00:24:33;;;;;;;0.67;0.60;;;;;;;22.37;47.68;100642.88;5012674;28;20476;-74
2022/07/05 00:26:58;;;;;;;1.50;0.60;;;;;;;22.33;47.23;100639.16;5028052;28;20400;-74
2022/07/05 00:29:24;;;;;;;0.50;0.50;;;;;;;22.31;47.18;100638.63;5020092;28;20414;-74
2022/07/05 00:31:50;;;;;;;1.60;0.75;;;;;;;22.34;46.80;100640.75;5023160;28;20431;-74
2022/07/05 00:34:15;;;;;;;1.00;0.50;;;;;;;22.32;47.28;100640.28;5016296;28;20805;-74
2022/07/05 00:36:40;;;;;;;1.67;0.50;;;;;;;22.29;47.29;100635.38;5025777;28;20470;-74
2022/07/05 00:39:07;;;;;;;1.47;0.40;;;;;;;22.25;47.33;100640.72;5031549;28;20478;-74
2022/07/05 00:41:33;;;;;;;1.77;0.60;;;;;;;22.27;47.52;100646.72;5028681;28;20917;-74
2022/07/05 00:44:04;;;;;;;1.83;0.90;;;;;;;22.21;47.48;100642.50;5024380;28;20417;-74
2022/07/05 00:46:29;;;;;;;2.70;0.65;;;;;;;22.25;47.51;100643.50;5027657;28;20391;-74
2022/07/05 00:48:54;;;;;;;1.90;0.40;;;;;;;22.26;47.76;100649.81;5031549;28;20738;-74
2022/07/05 00:51:21;;;;;;;0.70;0.60;;;;;;;22.16;48.02;100640.66;5030060;28;20798;-74
2022/07/05 00:53:46;;;;;;;2.67;0.70;;;;;;;22.09;48.48;100648.63;5017342;28;20422;-74
2022/07/05 00:56:13;;;;;;;1.03;0.50;;;;;;;22.12;48.64;100644.41;4999481;28;20975;-74
2022/07/05 00:58:39;;;;;;;4.43;0.77;;;;;;;22.07;48.74;100650.03;5000353;28;20407;-74
2022/07/05 01:01:06;;;;;;;4.70;1.00;;;;;;;22.01;49.02;100652.13;5037253;28;20406;-74
2022/07/05 01:03:32;;;;;;;1.30;0.85;;;;;;;21.96;49.42;100646.75;5024802;28;20421;-74
2022/07/05 01:05:59;;;;;;;0.57;0.55;;;;;;;21.81;49.56;100649.84;5021640;28;20435;-74
2022/07/05 01:08:25;;;;;;;0.75;0.70;;;;;;;21.74;50.07;100650.31;5029444;28;20392;-74
2022/07/05 01:10:52;;;;;;;1.77;0.87;;;;;;;21.79;49.83;100654.06;5028801;28;20435;-74
2022/07/05 01:13:17;;;;;;;2.40;0.85;;;;;;;21.77;50.12;100659.09;5020852;28;20778;-74
2022/07/05 01:15:43;;;;;;;1.03;0.73;;;;;;;21.69;50.13;100655.97;5020813;28;20499;-74
2022/07/05 01:18:09;;;;;;;1.60;0.75;;;;;;;21.67;50.23;100658.19;5027943;28;20414;-74
2022/07/05 01:20:36;;;;;;;1.38;0.98;;;;;;;21.64;50.33;100661.59;5024792;28;20496;-74
2022/07/05 01:23:02;;;;;;;2.45;1.10;;;;;;;21.61;50.59;100656.69;5020903;28;20884;-74
2022/07/05 01:25:29;;;;;;;1.95;1.25;;;;;;;21.56;50.69;100656.84;5024166;28;20399;-74
2022/07/05 01:27:56;;;;;;;3.50;1.33;;;;;;;21.47;50.95;100657.91;5030388;28;20421;-74
2022/07/05 01:30:22;;;;;;;3.28;1.40;;;;;;;21.27;51.51;100658.38;5025603;28;20792;-74
2022/07/05 01:32:48;;;;;;;2.40;1.10;;;;;;;21.15;52.00;100656.97;5018713;28;20826;-74
2022/07/05 01:35:14;;;;;;;1.10;0.90;;;;;;;21.12;52.25;100656.78;5023185;28;20407;-74
2022/07/05 01:37:40;;;;;;;1.67;0.90;;;;;;;21.21;52.14;100658.47;5030102;28;20387;-74
2022/07/05 01:40:06;;;;;;;2.40;1.00;;;;;;;21.20;52.18;100662.38;5023692;28;20582;-74
2022/07/05 01:42:32;;;;;;;2.08;1.25;;;;;;;21.20;52.40;100654.13;5019781;28;20506;-74
2022/07/05 01:44:58;;;;;;;1.98;0.85;;;;;;;21.21;52.26;100657.66;5023176;28;20918;-74
2022/07/05 01:47:24;;;;;;;0.83;0.83;;;;;;;21.12;52.47;100660.34;5028236;28;20390;-74
2022/07/05 01:49:54;;;;;;;1.70;0.90;;;;;;;21.10;52.50;100657.09;5027450;28;20415;-74
2022/07/05 01:52:21;;;;;;;2.70;1.10;;;;;;;21.06;52.61;100661.56;5030587;28;20421;-74
2022/07/05 01:54:47;;;;;;;0.98;0.85;;;;;;;21.10;52.73;100661.78;5016867;28;20399;-74
2022/07/05 01:57:13;;;;;;;0.90;0.70;;;;;;;21.12;52.80;100660.34;5031996;28;20421;-74
2022/07/05 01:59:38;;;;;;;1.52;0.88;;;;;;;21.11;52.51;100655.13;5028876;28;20406;-74
2022/07/05 02:02:05;;;;;;;2.00;0.80;;;;;;;21.04;52.60;100657.50;5010466;28;20398;-74
2022/07/05 02:04:33;;;;;;;0.80;0.70;;;;;;;20.93;52.69;100648.63;5013252;28;20565;-74
2022/07/05 02:06:59;;;;;;;1.15;0.85;;;;;;;20.79;53.07;100656.09;5014474;28;20507;-74
2022/07/05 02:09:24;;;;;;;1.40;0.80;;;;;;;20.78;53.10;100657.19;5030207;28;20525;-74
2022/07/05 02:11:50;;;;;;;1.07;0.87;;;;;;;20.79;52.96;100649.75;5009079;28;20413;-74
2022/07/05 02:14:15;;;;;;;1.43;0.90;;;;;;;20.70;52.83;100649.69;5009717;28;20414;-74
2022/07/05 02:16:40;;;;;;;1.88;0.82;;;;;;;20.65;53.04;100652.53;5039133;28;21009;-74
2022/07/05 02:19:06;;;;;;;2.07;0.90;;;;;;;20.64;52.79;100660.00;5033722;28;20402;-73
2022/07/05 02:21:31;;;;;;;1.33;0.70;;;;;;;20.51;53.26;100654.50;5005251;28;20814;-74
2022/07/05 02:23:56;;;;;;;0.90;0.73;;;;;;;20.38;53.33;100656.13;5016136;28;20399;-74
2022/07/05 02:26:22;;;;;;;0.60;0.60;;;;;;;20.35;53.39;100653.94;5032051;28;20395;-74
2022/07/05 02:28:48;;;;;;;0.90;0.70;;;;;;;20.37;53.41;100656.41;5030950;28;20379;-74
2022/07/05 02:31:15;;;;;;;0.85;0.60;;;;;;;20.40;53.57;100655.78;5035276;28;20411;-74
2022/07/05 02:33:40;;;;;;;2.13;1.02;;;;;;;20.45;53.52;100661.22;5034146;28;20402;-74
2022/07/05 02:36:11;;;;;;;1.07;0.70;;;;;;;20.45;53.69;100658.47;5034034;28;20383;-74
2022/07/05 02:38:37;;;;;;;1.40;0.65;;;;;;;20.42;53.32;100662.63;5029019;28;20472;-74
2022/07/05 02:41:06;;;;;;;2.38;1.20;;;;;;;20.44;53.18;100656.81;5030086;28;20446;-74
2022/07/05 02:43:33;;;;;;;1.13;0.85;;;;;;;20.44;53.26;100654.06;5033911;28;20484;-74
2022/07/05 02:45:58;;;;;;;0.63;0.60;;;;;;;20.38;52.94;100658.88;5033850;28;20476;-74
2022/07/05 02:48:23;;;;;;;1.13;0.90;;;;;;;20.27;53.25;100654.66;5033321;28;20518;-74
2022/07/05 02:50:49;;;;;;;0.80;0.80;;;;;;;20.12;53.77;100655.72;5013230;28;20724;-74
2022/07/05 02:53:14;;;;;;;0.70;0.70;;;;;;;20.04;53.94;100656.44;5033629;28;20744;-74
2022/07/05 02:55:39;;;;;;;5.07;0.93;;;;;;;19.91;54.41;100657.22;5021699;28;20426;-74
2022/07/05 02:58:04;;;;;;;2.63;1.10;;;;;;;19.91;54.32;100657.22;5025159;28;20470;-74
2022/07/05 03:00:30;;;;;;;1.20;1.00;;;;;;;19.98;54.44;100660.41;5022716;28;20408;-74
2022/07/05 03:02:55;;;;;;;1.40;0.80;;;;;;;20.03;54.46;100660.31;5032009;28;20399;-74
2022/07/05 03:05:21;;;;;;;3.73;1.80;;;;;;;19.98;54.82;100663.16;5029947;28;20418;-74
2022/07/05 03:07:46;;;;;;;3.30;1.10;;;;;;;19.98;55.29;100663.16;5026987;28;20391;-74
2022/07/05 03:10:11;;;;;;;1.07;0.87;;;;;;;20.00;55.53;100660.91;5019653;28;20548;-74
2022/07/05 03:12:36;;;;;;;1.03;0.97;;;;;;;20.04;55.68;100667.44;5029434;28;20424;-74
2022/07/05 03:15:02;;;;;;;2.37;1.20;;;;;;;20.05;55.60;100666.34;5020282;28;20407;-74
2022/07/05 03:17:27;;;;;;;1.55;0.93;;;;;;;20.07;55.65;100666.03;5048750;28;20437;-74
2022/07/05 03:19:52;;;;;;;3.57;1.13;;;;;;;20.00;56.10;100671.91;5021410;28;20440;-74
2022/07/05 03:22:18;;;;;;;0.93;0.90;;;;;;;19.96;56.09;100667.31;5004243;28;20407;-73
2022/07/05 03:24:43;;;;;;;1.77;0.90;;;;;;;19.90;56.21;100672.09;5048340;28;20453;-74
2022/07/05 03:27:08;;;;;;;1.10;1.00;;;;;;;19.85;56.46;100679.63;5026709;28;20508;-74
2022/07/05 03:29:33;;;;;;;4.63;1.33;;;;;;;19.85;56.67;100672.19;5017614;28;20897;-74
2022/07/05 03:31:59;;;;;;;1.53;0.90;;;;;;;19.91;56.30;100673.72;5004958;28;20429;-74
2022/07/05 03:34:24;;;;;;;1.35;1.30;;;;;;;19.96;56.09;100670.88;5033038;28;20430;-74
2022/07/05 03:36:49;;;;;;;2.23;1.07;;;;;;;19.98;55.92;100674.16;5032758;28;20874;-74
2022/07/05 03:39:15;;;;;;;1.43;1.00;;;;;;;19.95;55.79;100672.03;5027173;28;20404;-74
2022/07/05 03:41:40;;;;;;;1.20;1.10;;;;;;;19.87;56.05;100678.19;5025075;28;20430;-74
2022/07/05 03:44:06;;;;;;;3.65;1.10;;;;;;;19.79;56.32;100681.63;5032676;28;20723;-74
2022/07/05 03:46:31;;;;;;;3.40;1.50;;;;;;;19.73;56.36;100680.06;5021556;28;20453;-74
2022/07/05 03:48:56;;;;;;;1.13;0.93;;;;;;;19.69;56.45;100681.81;5016445;28;20387;-74
2022/07/05 03:51:21;;;;;;;2.10;1.20;;;;;;;19.61;56.76;100685.22;4997100;28;20501;-74
2022/07/05 03:53:47;;;;;;;2.80;1.30;;;;;;;19.49;57.25;100696.69;5014994;28;20395;-74
2022/07/05 03:56:12;;;;;;;0.90;0.90;;;;;;;19.48;57.20;100695.06;5025354;28;20407;-74
2022/07/05 03:58:37;;;;;;;3.53;1.00;;;;;;;19.56;56.76;100690.81;5032497;28;20399;-74
2022/07/05 04:01:03;;;;;;;2.37;1.00;;;;;;;19.59;56.12;100688.28;5005650;28;20822;-74
2022/07/05 04:03:28;;;;;;;1.40;0.97;;;;;;;19.59;55.86;100687.47;5027120;28;20399;-74
2022/07/05 04:05:53;;;;;;;2.33;0.90;;;;;;;19.59;55.72;100691.03;5014538;28;20468;-74
2022/07/05 04:08:19;;;;;;;1.80;1.20;;;;;;;19.60;55.69;100692.66;5030776;28;20445;-74
2022/07/05 04:10:44;;;;;;;2.38;1.00;;;;;;;19.58;55.68;100694.09;5041973;28;20920;-74
2022/07/05 04:13:09;;;;;;;3.13;1.20;;;;;;;19.53;55.89;100699.63;5020030;28;20460;-74
2022/07/05 04:15:34;;;;;;;2.10;0.90;;;;;;;19.52;55.93;100706.28;5014335;28;20478;-74
2022/07/05 04:18:00;;;;;;;1.70;0.70;;;;;;;19.47;56.20;100709.09;5029779;28;20748;-74
2022/07/05 04:20:25;;;;;;;1.27;0.80;;;;;;;19.42;56.49;100707.25;5017781;28;21573;-74
2022/07/05 04:22:51;;;;;;;2.33;0.82;;;;;;;19.46;56.23;100712.97;5016607;28;20421;-74
2022/07/05 04:25:17;;;;;;;4.43;0.87;;;;;;;19.51;56.10;100718.38;5027887;28;20419;-74
2022/07/05 04:27:48;;;;;;;1.15;0.88;;;;;;;19.52;56.07;100723.59;5018957;28;20403;-74
2022/07/05 04:30:15;;;;;;;3.30;1.20;;;;;;;19.42;56.87;100725.66;5017841;28;20422;-74
2022/07/05 04:32:41;;;;;;;10.98;1.33;;;;;;;19.24;57.47;100730.00;5023755;28;20421;-74
2022/07/05 04:35:07;;;;;;;3.40;1.20;;;;;;;19.17;58.14;100730.34;5019957;28;20410;-74
2022/07/05 04:37:32;;;;;;;4.15;1.27;;;;;;;19.12;58.61;100738.69;5018682;28;20456;-74
2022/07/05 04:39:57;;;;;;;3.50;1.10;;;;;;;19.07;59.21;100738.72;5022431;28;20414;-74
2022/07/05 04:42:23;;;;;;;1.40;1.07;;;;;;;19.08;59.18;100732.13;5029206;28;20411;-74
2022/07/05 04:44:48;;;;;;;2.20;1.10;;;;;;;18.99;59.29;100744.06;5032833;28;20762;-74
2022/07/05 04:47:13;;;;;;;1.90;1.07;;;;;;;18.94;59.36;100735.88;5017658;28;20902;-74
2022/07/05 04:49:39;;;;;;;1.63;0.97;;;;;;;18.92;58.92;100736.19;5025804;28;20430;-74
2022/07/05 04:52:04;;;;;;;1.37;0.93;;;;;;;18.97;58.41;100738.03;5028752;28;20468;-74
2022/07/05 04:54:29;;;;;;;2.17;0.90;;;;;;;18.97;58.05;100741.59;5023649;28;20409;-74
2022/07/05 04:56:55;;;;;;;1.80;1.50;;;;;;;19.03;57.59;100745.13;5017832;28;20420;-74
2022/07/05 04:59:20;;;;;;;2.70;0.80;;;;;;;18.94;57.59;100746.88;5007054;28;20447;-74
2022/07/05 05:01:45;;;;;;;4.73;1.17;;;;;;;19.02;57.38;100752.53;5022722;28;20415;-74
2022/07/05 05:04:11;;;;;;;1.37;0.90;;;;;;;19.06;57.15;100752.78;5017565;28;20401;-74
2022/07/05 05:06:36;;;;;;;2.63;0.93;;;;;;;19.02;57.18;100741.56;5031239;28;20917;-74
2022/07/05 05:09:02;;;;;;;1.77;1.05;;;;;;;19.01;57.29;100748.16;5046327;28;20402;-74
2022/07/05 05:11:27;;;;;;;3.73;0.80;;;;;;;18.95;57.46;100746.59;5020912;28;20406;-74
2022/07/05 05:13:52;;;;;;;1.80;0.80;;;;;;;19.00;57.52;100752.00;5009424;28;20420;-74
2022/07/05 05:16:18;;;;;;;1.67;0.87;;;;;;;19.03;57.43;100753.38;5030739;28;20395;-74
2022/07/05 05:18:43;;;;;;;2.13;1.00;;;;;;;19.17;57.05;100751.50;5030956;28;20406;-74
2022/07/05 05:21:08;;;;;;;3.07;0.90;;;;;;;19.23;56.69;100750.38;5031180;28;20445;-74
2022/07/05 05:23:33;;;;;;;1.80;1.20;;;;;;;19.42;55.90;100758.66;5016501;28;20423;-74
2022/07/05 05:25:59;;;;;;;1.30;0.70;;;;;;;19.48;55.85;100751.97;5014960;28;20414;-74
2022/07/05 05:28:24;;;;;;;0.88;0.85;;;;;;;19.49;55.77;100756.34;5019351;28;20399;-74
2022/07/05 05:30:49;;;;;;;3.10;1.10;;;;;;;19.55;55.67;100758.72;5011259;28;20387;-74
2022/07/05 05:33:14;;;;;;;1.07;0.80;;;;;;;19.52;55.98;100762.06;5019073;28;20466;-74
2022/07/05 05:35:40;;;;;;;1.67;0.97;;;;;;;19.44;56.18;100762.72;5003012;28;20433;-74
2022/07/05 05:38:05;;;;;;;1.30;0.83;;;;;;;19.46;56.04;100760.47;5025078;28;20403;-74
2022/07/05 05:40:32;;;;;;;1.08;0.90;;;;;;;19.60;55.83;100768.81;5011977;28;20468;-74
2022/07/05 05:42:58;;;;;;;2.63;0.75;;;;;;;19.72;55.50;100765.63;5022564;28;20473;-74
2022/07/05 05:45:23;;;;;;;1.20;1.10;;;;;;;19.67;55.69;100766.50;5021182;28;20721;-74
2022/07/05 05:47:51;;;;;;;2.60;0.93;;;;;;;19.58;56.00;100771.88;5030679;28;20456;-74
2022/07/05 05:50:22;;;;;;;6.90;1.10;;;;;;;19.55;56.14;100775.22;5011167;28;20486;-74
2022/07/05 05:52:47;;;;;;;1.80;0.93;;;;;;;19.58;56.13;100773.81;5016211;28;20427;-74
2022/07/05 05:55:12;;;;;;;1.40;1.10;;;;;;;19.58;56.32;100780.13;5025227;28;20399;-74
2022/07/05 05:57:38;;;;;;;1.93;1.03;;;;;;;19.63;56.04;100776.47;5027237;28;20399;-74
2022/07/05 06:00:05;;;;;;;1.53;1.20;;;;;;;19.80;55.74;100771.25;5018276;28;20414;-74
2022/07/05 06:02:30;;;;;;;2.38;0.82;;;;;;;19.98;55.26;100775.94;5018028;28;20414;-74
2022/07/05 06:04:55;;;;;;;1.90;1.03;;;;;;;20.09;55.07;100782.91;5001354;28;20403;-74
2022/07/05 06:07:21;;;;;;;2.70;1.10;;;;;;;20.07;55.49;100785.16;5028491;28;20389;-74
2022/07/05 06:09:46;;;;;;;1.63;1.10;;;;;;;20.02;55.68;100789.91;5014091;28;20407;-74
2022/07/05 06:12:11;;;;;;;1.63;1.23;;;;;;;20.03;55.95;100786.84;5008562;28;20416;-74
2022/07/05 06:14:37;;;;;;;5.50;1.30;;;;;;;20.07;55.80;100787.91;5039936;28;20809;-74
2022/07/05 06:17:02;;;;;;;2.43;1.83;;;;;;;20.05;56.07;100795.66;5026464;28;20404;-74
2022/07/05 06:19:27;;;;;;;2.28;1.45;;;;;;;20.09;56.17;100801.34;5042114;28;20435;-74
2022/07/05 06:21:52;;;;;;;4.03;1.47;;;;;;;20.19;56.01;100792.91;5007033;28;20409;-74
2022/07/05 06:24:18;;;;;;;5.40;1.40;;;;;;;20.22;55.94;100791.53;5018130;28;20408;-74
2022/07/05 06:26:43;;;;;;;3.00;1.23;;;;;;;20.32;55.76;100796.91;5010599;28;20741;-74
2022/07/05 06:29:08;;;;;;;1.37;1.20;;;;;;;20.38;55.54;100798.44;5019526;28;20403;-74
2022/07/05 06:31:33;;;;;;;3.03;1.17;;;;;;;20.44;55.34;100799.97;5017167;28;20426;-74
2022/07/05 06:33:59;;;;;;;1.13;1.13;;;;;;;20.47;55.19;100802.13;5006284;28;20787;-74
2022/07/05 06:36:24;;;;;;;3.33;1.10;;;;;;;20.58;54.69;100800.84;5021684;28;20391;-74
2022/07/05 06:38:49;;;;;;;2.30;1.10;;;;;;;20.67;54.06;100799.81;5012634;28;20407;-73
2022/07/05 06:41:14;;;;;;;2.50;1.20;;;;;;;20.70;53.72;100801.16;5025983;28;20902;-74
2022/07/05 06:43:40;;;;;;;1.97;0.93;;;;;;;20.74;53.02;100798.59;5015005;28;20424;-74
2022/07/05 06:46:05;;;;;;;4.53;0.90;;;;;;;20.77;52.78;100800.75;5013209;28;20510;-74
2022/07/05 06:48:30;;;;;;;2.63;1.00;;;;;;;20.74;52.24;100793.91;5003910;28;20929;-74
2022/07/05 06:50:56;;;;;;;2.58;0.90;;;;;;;20.78;51.48;100799.63;5002333;28;20409;-73
2022/07/05 06:53:21;;;;;;;1.13;0.97;;;;;;;20.81;51.62;100797.09;5014998;28;20420;-73
2022/07/05 06:55:46;;;;;;;2.23;0.93;;;;;;;20.86;51.10;100796.16;5019578;28;20402;-73
2022/07/05 06:58:12;;;;;;;1.70;1.10;;;;;;;20.94;50.65;100796.28;5020540;28;20392;-74
2022/07/05 07:00:38;;;;;;;4.03;1.40;;;;;;;21.00;49.93;100806.09;5046036;28;20407;-75
2022/07/05 07:03:03;;;;;;;1.30;1.00;;;;;;;21.06;49.18;100804.84;5008250;28;20485;-73
2022/07/05 07:05:29;;;;;;;2.17;0.90;;;;;;;21.10;48.60;100808.66;5032647;28;20826;-73
2022/07/05 07:10:38;;;;;;;1.40;1.00;;;;;;;21.14;47.98;100801.41;5026903;28;20402;-74
2022/07/05 07:13:04;;;;;;;2.73;1.00;;;;;;;21.19;48.29;100806.00;5013546;28;20411;-73
2022/07/05 07:15:30;;;;;;;1.52;1.00;;;;;;;21.25;48.24;100803.94;5016862;28;20415;-73
2022/07/05 07:17:55;;;;;;;1.95;1.50;;;;;;;21.31;47.81;100809.03;5021782;28;20756;-73
2022/07/05 07:20:21;;;;;;;2.23;0.97;;;;;;;21.35;47.68;100818.34;5033024;28;20766;-73
2022/07/05 07:22:46;;;;;;;1.45;0.90;;;;;;;21.40;47.43;100820.19;5019155;28;20945;-73
2022/07/05 07:25:12;;;;;;;6.30;0.90;;;;;;;21.45;47.07;100820.88;5024176;28;20825;-74
2022/07/05 07:27:49;;;;;;;1.10;0.90;;;;;;;21.49;47.16;100821.09;5016315;28;20394;-73
2022/07/05 07:30:16;;;;;;;1.83;0.98;;;;;;;21.54;47.36;100826.47;4997695;28;20873;-73
2022/07/05 07:32:42;;;;;;;1.73;0.65;;;;;;;21.59;47.65;100829.97;5012031;28;20489;-73
2022/07/05 07:35:09;;;;;;;1.30;1.20;;;;;;;21.65;47.55;100828.72;5022549;28;20677;-73
2022/07/05 07:37:35;;;;;;;2.07;0.90;;;;;;;21.68;47.06;100828.09;5014596;28;20499;-73
2022/07/05 07:40:01;;;;;;;1.00;0.90;;;;;;;21.76;47.15;100832.06;5031472;28;20754;-73
2022/07/05 07:42:27;;;;;;;1.55;0.80;;;;;;;21.83;47.39;100824.19;5021929;28;20395;-73
2022/07/05 07:44:53;;;;;;;2.88;1.15;;;;;;;21.88;47.22;100831.53;5020683;28;20421;-73
2022/07/05 07:47:18;;;;;;;2.93;0.80;;;;;;;21.93;46.98;100828.69;5025617;28;20392;-73
2022/07/05 07:49:43;;;;;;;1.83;0.93;;;;;;;21.94;46.67;100828.38;5032354;28;20437;-73
2022/07/05 07:52:09;;;;;;;0.63;0.60;;;;;;;21.99;46.58;100835.72;5019766;28;20419;-73
2022/07/05 07:54:34;;;;;;;6.35;0.82;;;;;;;22.01;46.33;100828.75;5026166;28;20411;-74
2022/07/05 07:57:01;;;;;;;2.27;0.93;;;;;;;22.03;46.18;100829.25;5022318;28;20409;-73
2022/07/05 07:59:27;;;;;;;1.90;0.80;;;;;;;22.09;45.92;100830.78;5019190;28;20410;-73
2022/07/05 08:01:52;;;;;;;2.60;0.70;;;;;;;22.13;45.85;100831.75;5013234;28;21020;-73
2022/07/05 08:04:17;;;;;;;1.83;0.90;;;;;;;22.19;45.61;100830.53;5029249;28;20854;-73
2022/07/05 08:06:44;;;;;;;0.50;0.50;;;;;;;22.26;45.64;100837.56;5047677;28;20399;-73
2022/07/05 08:09:10;;;;;;;0.80;0.60;;;;;;;22.27;45.15;100834.47;5031704;28;20391;-73
2022/07/05 08:11:35;;;;;;;1.30;0.50;;;;;;;22.33;45.35;100840.72;5024466;28;20805;-73
2022/07/05 08:14:00;;;;;;;0.65;0.50;;;;;;;22.36;45.00;100834.56;5046285;28;20418;-73
2022/07/05 08:16:25;;;;;;;1.30;0.70;;;;;;;22.39;44.74;100831.97;5024192;28;20395;-73
2022/07/05 08:21:37;;;;;;;0.70;0.70;;;;;;;22.54;44.65;100826.06;5026597;28;20398;-73
2022/07/05 08:24:08;;;;;;;2.00;0.93;;;;;;;22.61;44.95;100825.59;5031787;28;20402;-73
2022/07/05 08:26:35;;;;;;;1.50;0.47;;;;;;;22.68;44.89;100828.78;5024160;28;20402;-73
2022/07/05 08:29:03;;;;;;;1.73;0.60;;;;;;;22.73;44.54;100826.69;5031140;28;20391;-73
2022/07/05 08:31:32;;;;;;;0.77;0.60;;;;;;;22.81;44.50;100830.63;5021371;28;20427;-74
2022/07/05 08:33:59;;;;;;;2.80;0.60;;;;;;;22.90;44.18;100828.72;5031916;28;20399;-73
2022/07/05 08:36:24;;;;;;;0.68;0.68;;;;;;;22.96;44.01;100827.44;5024508;28;20397;-73
2022/07/05 08:38:49;;;;;;;2.10;0.63;;;;;;;23.05;44.26;100824.72;5016834;28;20771;-73
2022/07/05 08:41:19;;;;;;;2.00;0.50;;;;;;;23.17;44.46;100824.94;5020896;28;20898;-73
2022/07/05 08:43:46;;;;;;;1.25;0.55;;;;;;;23.21;44.17;100832.28;5019043;28;20436;-73
2022/07/05 08:46:15;;;;;;;1.67;0.60;;;;;;;23.31;44.46;100831.16;5009035;28;20825;-73
2022/07/05 08:48:42;;;;;;;1.50;0.93;;;;;;;23.41;44.49;100827.31;5029522;28;20410;-73
2022/07/05 08:51:28;;;;;;;1.70;0.70;;;;;;;23.49;43.92;100826.50;5012439;28;20414;-74
2022/07/05 08:53:57;;;;;;;1.58;0.60;;;;;;;23.57;43.44;100821.00;4994200;28;20472;-73
2022/07/05 08:56:23;;;;;;;1.33;0.60;;;;;;;23.68;43.40;100818.72;5015908;28;20392;-73
2022/07/05 08:58:51;;;;;;;1.58;0.50;;;;;;;23.88;43.21;100818.09;5009242;28;20393;-73
2022/07/05 09:01:16;;;;;;;1.05;0.47;;;;;;;24.07;42.78;100820.56;5008322;28;20409;-73
2022/07/05 09:03:47;;;;;;;0.63;0.50;;;;;;;24.15;42.56;100819.75;5003887;28;20508;-74
2022/07/05 09:06:16;;;;;;;3.30;0.60;;;;;;;24.22;42.22;100820.09;5028250;28;20395;-73
2022/07/05 09:08:42;;;;;;;1.48;0.65;;;;;;;24.31;42.42;100817.28;5027398;28;20399;-73
2022/07/05 09:11:09;;;;;;;1.35;0.50;;;;;;;24.38;41.54;100815.66;5006188;28;20409;-73
2022/07/05 09:13:36;;;;;;;2.35;0.70;;;;;;;24.41;41.46;100822.50;5011170;28;20428;-73
2022/07/05 09:16:02;;;;;;;3.03;0.70;;;;;;;24.53;41.68;100819.88;5018189;28;20412;-73
2022/07/05 09:18:40;;;;;;;2.75;0.70;;;;;;;24.69;41.21;100819.03;5011650;28;20896;-74
2022/07/05 09:21:25;;;;;;;3.35;0.65;;;;;;;24.80;40.98;100813.91;5013863;28;20471;-73
2022/07/05 09:23:58;;;;;;;0.63;0.40;;;;;;;24.91;40.84;100819.97;5026598;28;20410;-73
2022/07/05 09:26:34;;;;;;;2.60;0.40;;;;;;;25.09;40.98;100822.31;5022751;28;20751;-73
2022/07/05 09:28:59;;;;;;;1.00;0.40;;;;;;;25.23;40.53;100822.09;5018350;28;20760;-73
2022/07/05 09:31:28;;;;;;;0.82;0.57;;;;;;;25.41;40.48;100820.06;5015979;28;20405;-73
2022/07/05 09:33:54;;;;;;;2.38;0.65;;;;;;;25.51;39.39;100830.81;5012552;28;20438;-73
2022/07/05 09:36:19;;;;;;;1.00;0.40;;;;;;;25.61;39.37;100831.22;5026513;28;20422;-74
2022/07/05 09:38:50;;;;;;;0.70;0.43;;;;;;;25.76;39.21;100829.81;5030952;28;20387;-74
2022/07/05 09:41:15;;;;;;;0.60;0.30;;;;;;;25.95;39.12;100832.91;5015322;28;20412;-73
2022/07/05 09:43:41;;;;;;;1.60;0.47;;;;;;;26.07;38.79;100827.44;5013436;28;20508;-73
2022/07/05 09:46:07;;;;;;;0.93;0.50;;;;;;;26.24;37.99;100826.53;5017977;28;20403;-73
2022/07/05 09:48:33;;;;;;;1.30;0.40;;;;;;;26.34;37.69;100820.53;5023095;28;20449;-73
2022/07/05 09:51:11;;;;;;;2.70;0.55;;;;;;;26.52;37.40;100823.94;5017698;28;20436;-73
2022/07/05 09:53:50;;;;;;;0.75;0.30;;;;;;;26.65;36.72;100828.38;5030100;28;20834;-73
2022/07/05 09:56:17;;;;;;;3.63;0.50;;;;;;;26.82;36.78;100822.66;5025673;28;20416;-73
2022/07/05 09:58:43;;;;;;;0.50;0.40;;;;;;;27.05;36.50;100820.25;5024157;28;20426;-74
2022/07/05 10:01:24;;;;;;;2.00;0.57;;;;;;;27.30;35.39;100814.34;5016345;28;20465;-73
2022/07/05 10:04:03;;;;;;;0.35;0.35;;;;;;;27.75;35.74;100816.19;5018850;28;20399;-73
2022/07/05 10:06:32;;;;;;;1.98;0.70;;;;;;;28.21;34.46;100814.78;5015746;28;20490;-74
2022/07/05 10:08:58;;;;;;;1.30;0.50;;;;;;;28.58;33.47;100815.44;5025888;28;20391;-73
2022/07/05 10:11:25;;;;;;;1.77;0.70;;;;;;;29.31;32.27;100813.78;5028444;28;20906;-73
2022/07/05 10:13:52;;;;;;;1.08;0.40;;;;;;;30.67;30.25;100810.75;5006587;28;20424;-73
2022/07/05 10:16:18;;;;;;;0.67;0.40;;;;;;;31.97;28.12;100821.66;5013199;28;20467;-73
2022/07/05 10:18:46;;;;;;;1.40;0.40;;;;;;;33.13;26.19;100823.00;5016831;28;20408;-74
2022/07/05 10:21:15;;;;;;;0.85;0.40;;;;;;;33.67;25.41;100813.78;5010942;28;20581;-73
2022/07/05 10:23:44;;;;;;;0.70;0.45;;;;;;;34.64;23.59;100816.66;5033084;28;20482;-74
2022/07/05 10:26:12;;;;;;;1.03;0.63;;;;;;;35.43;23.15;100821.88;5034391;28;20391;-74
2022/07/05 10:28:39;;;;;;;1.73;0.40;;;;;;;36.14;22.39;100824.56;5018851;28;20411;-74
2022/07/05 10:31:08;;;;;;;0.50;0.50;;;;;;;36.89;21.72;100831.41;5034466;28;20480;-73
2022/07/05 10:33:33;;;;;;;2.22;0.50;;;;;;;37.21;21.57;100825.56;5023533;28;20432;-72
2022/07/05 10:35:59;;;;;;;0.57;0.30;;;;;;;37.21;20.49;100827.56;5025841;28;20391;-72
2022/07/05 10:38:25;;;;;;;3.03;0.63;;;;;;;37.59;20.13;100814.28;5021523;28;20420;-72
2022/07/05 10:40:55;;;;;;;1.05;0.20;;;;;;;37.90;19.68;100819.59;5033791;28;20796;-71
2022/07/05 10:43:21;;;;;;;0.90;0.30;;;;;;;37.74;19.87;100818.59;5024240;28;20403;-71
2022/07/05 10:45:48;;;;;;;0.50;0.50;;;;;;;37.83;19.49;100816.84;5042064;28;20410;-72
2022/07/05 10:48:23;;;;;;;1.20;0.20;;;;;;;38.04;19.02;100823.53;5020827;28;20416;-71
2022/07/05 10:50:53;;;;;;;1.00;0.60;;;;;;;38.11;19.01;100817.75;5005157;28;20438;-72
2022/07/05 10:53:48;;;;;;;1.83;0.30;;;;;;;38.46;18.87;100819.34;5023013;28;20438;-72
2022/07/05 10:56:14;;;;;;;1.85;0.30;;;;;;;38.71;18.72;100820.56;5032076;28;20391;-72
2022/07/05 10:58:41;;;;;;;1.08;0.35;;;;;;;38.99;17.98;100816.53;5025839;28;20540;-71
2022/07/05 11:01:12;;;;;;;5.47;0.55;;;;;;;39.43;17.56;100821.84;5033268;28;20452;-72
2022/07/05 11:03:43;;;;;;;0.40;0.30;;;;;;;39.80;16.70;100812.25;5024749;28;20399;-72
2022/07/05 11:06:19;;;;;;;1.17;0.25;;;;;;;39.87;17.17;100814.13;5046019;28;20951;-72
2022/07/05 11:08:56;;;;;;;0.35;0.20;;;;;;;39.59;18.28;100818.28;5034452;28;21103;-72
2022/07/05 11:11:29;;;;;;;0.30;0.30;;;;;;;39.49;17.18;100812.84;5007716;28;21229;-72
2022/07/05 11:13:58;;;;;;;0.90;0.40;;;;;;;39.79;16.95;100809.81;5016585;28;20417;-72
2022/07/05 11:16:31;;;;;;;2.70;0.50;;;;;;;40.02;16.52;100811.78;5033435;28;20967;-72
2022/07/05 11:19:06;;;;;;;2.50;0.40;;;;;;;40.08;16.24;100810.06;5011305;28;20441;-73
2022/07/05 11:21:33;;;;;;;2.80;0.40;;;;;;;40.46;16.08;100804.75;5010181;28;20406;-72
2022/07/05 11:24:28;;;;;;;1.20;0.23;;;;;;;41.03;14.89;100815.63;5018338;28;20494;-73
2022/07/05 11:26:59;;;;;;;0.60;0.40;;;;;;;40.11;15.68;100814.88;5017227;28;20502;-73
2022/07/05 11:29:48;;;;;;;1.20;0.40;;;;;;;38.40;17.34;100802.00;5035249;28;20439;-73